Time;durP1;ratioP1;P1;durP2;ratioP2;P2;SDS_P1;SDS_P2;PMS_P1;PMS_P2;Temp;Humidity;BMP_temperature;BMP_pressure;BME280_temperature;BME280_humidity;BME280_pressure;Samples;Min_cycle;Max_cycle;Signal;HPM_P1;HPM_P2
2022/10/31 00:00:00;;;;;;;0.7;0.7;;;;;;;15.4;100.0;101820;;;;
2022/10/31 00:01:01;;;;;;;0.7;0.7;;;;;;;15.4;100.0;101820;;;;
2022/10/31 00:02:00;;;;;;;0.7;0.7;;;;;;;15.5;100.0;101820;;;;
2022/10/31 00:03:00;;;;;;;0.7;0.7;;;;;;;15.5;100.0;101820;;;;
2022/10/31 00:04:00;;;;;;;0.7;0.7;;;;;;;15.4;100.0;101810;;;;
2022/10/31 00:05:00;;;;;;;0.7;0.7;;;;;;;15.4;100.0;101810;;;;
2022/10/31 00:06:01;;;;;;;0.7;0.7;;;;;;;15.4;100.0;101810;;;;
2022/10/31 00:07:00;;;;;;;0.7;0.7;;;;;;;15.4;100.0;101810;;;;
2022/10/31 00:08:00;;;;;;;0.7;0.7;;;;;;;15.4;100.0;101810;;;;
2022/10/31 00:09:01;;;;;;;0.7;0.7;;;;;;;15.4;100.0;101810;;;;
2022/10/31 00:10:00;;;;;;;0.7;0.7;;;;;;;15.4;100.0;101810;;;;
2022/10/31 00:11:00;;;;;;;0.7;0.7;;;;;;;15.4;100.0;101810;;;;
2022/10/31 00:12:00;;;;;;;0.7;0.7;;;;;;;15.4;100.0;101820;;;;
2022/10/31 00:13:00;;;;;;;0.7;0.7;;;;;;;15.4;100.0;101820;;;;
2022/10/31 00:14:00;;;;;;;0.7;0.7;;;;;;;15.4;100.0;101820;;;;
2022/10/31 00:15:00;;;;;;;0.5;0.5;;;;;;;15.4;100.0;101820;;;;
2022/10/31 00:16:00;;;;;;;0.5;0.5;;;;;;;15.4;100.0;101820;;;;
2022/10/31 00:17:00;;;;;;;0.5;0.5;;;;;;;15.4;100.0;101820;;;;
2022/10/31 00:18:00;;;;;;;0.5;0.5;;;;;;;15.3;100.0;101820;;;;
2022/10/31 00:19:01;;;;;;;0.5;0.5;;;;;;;15.3;100.0;101820;;;;
2022/10/31 00:20:00;;;;;;;0.5;0.5;;;;;;;15.3;100.0;101820;;;;
2022/10/31 00:21:00;;;;;;;0.5;0.5;;;;;;;15.3;100.0;101820;;;;
2022/10/31 00:22:00;;;;;;;0.5;0.5;;;;;;;15.3;100.0;101820;;;;
2022/10/31 00:23:00;;;;;;;0.5;0.5;;;;;;;15.3;100.0;101820;;;;
2022/10/31 00:24:00;;;;;;;0.5;0.5;;;;;;;15.3;100.0;101820;;;;
2022/10/31 00:25:00;;;;;;;0.5;0.5;;;;;;;15.3;100.0;101820;;;;
2022/10/31 00:26:01;;;;;;;0.5;0.5;;;;;;;15.2;100.0;101830;;;;
2022/10/31 00:27:00;;;;;;;0.5;0.5;;;;;;;15.2;100.0;101830;;;;
2022/10/31 00:28:00;;;;;;;0.5;0.5;;;;;;;15.2;100.0;101820;;;;
2022/10/31 00:29:00;;;;;;;0.5;0.5;;;;;;;15.2;100.0;101820;;;;
2022/10/31 00:30:00;;;;;;;0.5;0.5;;;;;;;15.2;100.0;101820;;;;
2022/10/31 00:31:02;;;;;;;0.5;0.5;;;;;;;15.2;100.0;101820;;;;
2022/10/31 00:32:00;;;;;;;0.5;0.5;;;;;;;15.2;100.0;101820;;;;
2022/10/31 00:33:00;;;;;;;0.5;0.5;;;;;;;15.2;100.0;101820;;;;
2022/10/31 00:34:02;;;;;;;0.5;0.5;;;;;;;15.1;100.0;101820;;;;
2022/10/31 00:35:00;;;;;;;0.6;0.6;;;;;;;15.1;100.0;101820;;;;
2022/10/31 00:36:00;;;;;;;0.6;0.6;;;;;;;15.1;100.0;101820;;;;
2022/10/31 00:37:00;;;;;;;0.6;0.6;;;;;;;15.1;100.0;101820;;;;
2022/10/31 00:38:00;;;;;;;0.6;0.6;;;;;;;15.1;100.0;101830;;;;
2022/10/31 00:39:01;;;;;;;0.6;0.6;;;;;;;15.1;100.0;101830;;;;
2022/10/31 00:40:00;;;;;;;0.6;0.6;;;;;;;15.0;100.0;101820;;;;
2022/10/31 00:41:00;;;;;;;0.6;0.6;;;;;;;15.0;100.0;101820;;;;
2022/10/31 00:42:00;;;;;;;0.6;0.6;;;;;;;15.0;100.0;101820;;;;
2022/10/31 00:43:01;;;;;;;0.6;0.6;;;;;;;15.0;100.0;101820;;;;
2022/10/31 00:44:00;;;;;;;0.6;0.6;;;;;;;14.9;100.0;101820;;;;
2022/10/31 00:45:00;;;;;;;0.6;0.6;;;;;;;14.9;100.0;101820;;;;
2022/10/31 00:46:00;;;;;;;0.6;0.6;;;;;;;14.9;100.0;101820;;;;
2022/10/31 00:47:00;;;;;;;0.6;0.6;;;;;;;14.9;100.0;101820;;;;
2022/10/31 00:48:00;;;;;;;0.6;0.6;;;;;;;14.9;100.0;101820;;;;
2022/10/31 00:49:00;;;;;;;0.6;0.6;;;;;;;14.9;100.0;101820;;;;
2022/10/31 00:50:00;;;;;;;0.6;0.6;;;;;;;14.7;100.0;101810;;;;
2022/10/31 00:51:00;;;;;;;0.6;0.6;;;;;;;14.7;100.0;101810;;;;
2022/10/31 00:52:00;;;;;;;0.6;0.6;;;;;;;14.8;100.0;101810;;;;
2022/10/31 00:53:00;;;;;;;0.6;0.6;;;;;;;14.8;100.0;101810;;;;
2022/10/31 00:54:00;;;;;;;0.6;0.6;;;;;;;14.7;100.0;101810;;;;
2022/10/31 00:55:00;;;;;;;0.6;0.6;;;;;;;14.7;100.0;101810;;;;
2022/10/31 00:56:00;;;;;;;0.6;0.6;;;;;;;14.8;100.0;101810;;;;
2022/10/31 00:57:00;;;;;;;0.6;0.6;;;;;;;14.8;100.0;101810;;;;
2022/10/31 00:58:00;;;;;;;0.6;0.6;;;;;;;14.7;100.0;101810;;;;
2022/10/31 00:59:00;;;;;;;0.6;0.6;;;;;;;14.7;100.0;101810;;;;
2022/10/31 01:00:00;;;;;;;0.6;0.6;;;;;;;14.7;100.0;101810;;;;
2022/10/31 01:01:00;;;;;;;0.6;0.6;;;;;;;14.7;100.0;101810;;;;
2022/10/31 01:02:00;;;;;;;0.6;0.6;;;;;;;14.7;100.0;101810;;;;
2022/10/31 01:03:00;;;;;;;0.6;0.6;;;;;;;14.7;100.0;101810;;;;
2022/10/31 01:04:00;;;;;;;0.6;0.6;;;;;;;14.7;100.0;101810;;;;
2022/10/31 01:05:00;;;;;;;0.6;0.6;;;;;;;14.7;100.0;101810;;;;
2022/10/31 01:06:03;;;;;;;0.6;0.6;;;;;;;14.6;100.0;101810;;;;
2022/10/31 01:07:00;;;;;;;0.6;0.6;;;;;;;14.6;100.0;101810;;;;
2022/10/31 01:08:00;;;;;;;0.6;0.6;;;;;;;14.5;100.0;101820;;;;
2022/10/31 01:09:00;;;;;;;0.6;0.6;;;;;;;14.5;100.0;101820;;;;
2022/10/31 01:10:00;;;;;;;0.6;0.6;;;;;;;14.5;100.0;101820;;;;
2022/10/31 01:11:01;;;;;;;0.6;0.6;;;;;;;14.5;100.0;101820;;;;
2022/10/31 01:12:00;;;;;;;0.6;0.6;;;;;;;14.5;100.0;101820;;;;
2022/10/31 01:13:00;;;;;;;0.6;0.6;;;;;;;14.5;100.0;101820;;;;
2022/10/31 01:14:00;;;;;;;0.6;0.6;;;;;;;14.5;100.0;101820;;;;
2022/10/31 01:15:00;;;;;;;0.5;0.5;;;;;;;14.5;100.0;101820;;;;
2022/10/31 01:16:00;;;;;;;0.5;0.5;;;;;;;14.5;100.0;101810;;;;
2022/10/31 01:17:00;;;;;;;0.5;0.5;;;;;;;14.5;100.0;101810;;;;
2022/10/31 01:18:00;;;;;;;0.5;0.5;;;;;;;14.4;100.0;101820;;;;
2022/10/31 01:19:00;;;;;;;0.5;0.5;;;;;;;14.4;100.0;101820;;;;
2022/10/31 01:20:00;;;;;;;0.5;0.5;;;;;;;14.4;100.0;101820;;;;
2022/10/31 01:21:01;;;;;;;0.5;0.5;;;;;;;14.4;100.0;101820;;;;
2022/10/31 01:22:00;;;;;;;0.5;0.5;;;;;;;14.6;100.0;101820;;;;
2022/10/31 01:23:00;;;;;;;0.5;0.5;;;;;;;14.6;100.0;101820;;;;
2022/10/31 01:24:01;;;;;;;0.5;0.5;;;;;;;14.5;100.0;101810;;;;
2022/10/31 01:25:00;;;;;;;0.5;0.5;;;;;;;14.5;100.0;101810;;;;
2022/10/31 01:26:05;;;;;;;0.5;0.5;;;;;;;14.2;100.0;101800;;;;
2022/10/31 01:27:00;;;;;;;0.5;0.5;;;;;;;14.2;100.0;101800;;;;
2022/10/31 01:28:01;;;;;;;0.5;0.5;;;;;;;14.2;100.0;101790;;;;
2022/10/31 01:29:01;;;;;;;0.5;0.5;;;;;;;14.2;100.0;101790;;;;
2022/10/31 01:30:00;;;;;;;0.5;0.5;;;;;;;14.3;100.0;101800;;;;
2022/10/31 01:31:01;;;;;;;0.5;0.5;;;;;;;14.3;100.0;101800;;;;
2022/10/31 01:32:00;;;;;;;0.5;0.5;;;;;;;14.3;100.0;101800;;;;
2022/10/31 01:33:00;;;;;;;0.5;0.5;;;;;;;14.3;100.0;101800;;;;
2022/10/31 01:34:00;;;;;;;0.5;0.5;;;;;;;14.3;100.0;101790;;;;
2022/10/31 01:35:00;;;;;;;0.5;0.5;;;;;;;14.3;100.0;101790;;;;
2022/10/31 01:36:00;;;;;;;0.5;0.5;;;;;;;14.4;100.0;101780;;;;
2022/10/31 01:37:00;;;;;;;0.5;0.5;;;;;;;14.4;100.0;101780;;;;
2022/10/31 01:38:00;;;;;;;0.5;0.5;;;;;;;14.4;100.0;101780;;;;
2022/10/31 01:39:02;;;;;;;0.5;0.5;;;;;;;14.4;100.0;101780;;;;
2022/10/31 01:40:00;;;;;;;0.5;0.5;;;;;;;14.3;100.0;101780;;;;
2022/10/31 01:41:00;;;;;;;0.5;0.5;;;;;;;14.3;100.0;101780;;;;
2022/10/31 01:42:00;;;;;;;0.5;0.5;;;;;;;14.3;100.0;101790;;;;
2022/10/31 01:43:00;;;;;;;0.5;0.5;;;;;;;14.3;100.0;101790;;;;
2022/10/31 01:44:01;;;;;;;0.5;0.5;;;;;;;14.2;100.0;101790;;;;
2022/10/31 01:45:01;;;;;;;0.5;0.5;;;;;;;14.2;100.0;101790;;;;
2022/10/31 01:46:00;;;;;;;0.5;0.5;;;;;;;14.2;100.0;101790;;;;
2022/10/31 01:47:05;;;;;;;0.5;0.5;;;;;;;14.2;100.0;101790;;;;
2022/10/31 01:48:00;;;;;;;0.5;0.5;;;;;;;14.2;100.0;101790;;;;
2022/10/31 01:49:02;;;;;;;0.5;0.5;;;;;;;14.2;100.0;101790;;;;
2022/10/31 01:50:02;;;;;;;0.5;0.5;;;;;;;14.2;100.0;101790;;;;
2022/10/31 01:51:00;;;;;;;0.5;0.5;;;;;;;14.2;100.0;101790;;;;
2022/10/31 01:52:03;;;;;;;0.5;0.5;;;;;;;14.2;100.0;101800;;;;
2022/10/31 01:53:00;;;;;;;0.5;0.5;;;;;;;14.2;100.0;101800;;;;
2022/10/31 01:54:02;;;;;;;0.5;0.5;;;;;;;14.2;100.0;101800;;;;
2022/10/31 01:55:02;;;;;;;0.4;0.4;;;;;;;14.2;100.0;101800;;;;
2022/10/31 01:56:00;;;;;;;0.4;0.4;;;;;;;14.2;100.0;101810;;;;
2022/10/31 01:57:01;;;;;;;0.4;0.4;;;;;;;14.2;100.0;101810;;;;
2022/10/31 01:58:10;;;;;;;0.4;0.4;;;;;;;14.2;100.0;101810;;;;
2022/10/31 01:59:01;;;;;;;0.4;0.4;;;;;;;14.2;100.0;101810;;;;
2022/10/31 02:00:01;;;;;;;0.4;0.4;;;;;;;14.2;100.0;101810;;;;
2022/10/31 02:01:07;;;;;;;0.4;0.4;;;;;;;14.2;100.0;101810;;;;
2022/10/31 02:02:00;;;;;;;0.4;0.4;;;;;;;14.1;100.0;101810;;;;
2022/10/31 02:03:01;;;;;;;0.4;0.4;;;;;;;14.1;100.0;101810;;;;
2022/10/31 02:04:00;;;;;;;0.4;0.4;;;;;;;14.1;100.0;101810;;;;
2022/10/31 02:05:01;;;;;;;0.4;0.4;;;;;;;14.1;100.0;101810;;;;
2022/10/31 02:06:00;;;;;;;0.4;0.4;;;;;;;14.1;100.0;101800;;;;
2022/10/31 02:07:03;;;;;;;0.4;0.4;;;;;;;14.1;100.0;101800;;;;
2022/10/31 02:08:03;;;;;;;0.4;0.4;;;;;;;14.1;100.0;101800;;;;
2022/10/31 02:09:01;;;;;;;0.4;0.4;;;;;;;14.1;100.0;101800;;;;
2022/10/31 02:10:00;;;;;;;0.4;0.4;;;;;;;14.1;100.0;101800;;;;
2022/10/31 02:11:01;;;;;;;0.4;0.4;;;;;;;14.1;100.0;101800;;;;
2022/10/31 02:12:00;;;;;;;0.4;0.4;;;;;;;14.1;100.0;101800;;;;
2022/10/31 02:13:02;;;;;;;0.4;0.4;;;;;;;14.1;100.0;101800;;;;
2022/10/31 02:14:01;;;;;;;0.4;0.4;;;;;;;14.1;100.0;101800;;;;
2022/10/31 02:15:00;;;;;;;0.6;0.6;;;;;;;14.1;100.0;101800;;;;
2022/10/31 02:16:00;;;;;;;0.6;0.6;;;;;;;14.1;100.0;101800;;;;
2022/10/31 02:17:00;;;;;;;0.6;0.6;;;;;;;14.1;100.0;101800;;;;
2022/10/31 02:18:01;;;;;;;0.6;0.6;;;;;;;14.0;100.0;101800;;;;
2022/10/31 02:19:00;;;;;;;0.6;0.6;;;;;;;14.0;100.0;101800;;;;
2022/10/31 02:20:10;;;;;;;0.6;0.6;;;;;;;14.0;100.0;101800;;;;
2022/10/31 02:21:01;;;;;;;0.6;0.6;;;;;;;14.0;100.0;101800;;;;
2022/10/31 02:22:07;;;;;;;0.6;0.6;;;;;;;14.0;100.0;101800;;;;
2022/10/31 02:23:00;;;;;;;0.6;0.6;;;;;;;14.0;100.0;101800;;;;
2022/10/31 02:24:06;;;;;;;0.6;0.6;;;;;;;13.9;100.0;101790;;;;
2022/10/31 02:25:10;;;;;;;0.6;0.6;;;;;;;13.9;100.0;101790;;;;
2022/10/31 02:26:00;;;;;;;0.6;0.6;;;;;;;14.0;100.0;101790;;;;
2022/10/31 02:27:00;;;;;;;0.6;0.6;;;;;;;14.0;100.0;101790;;;;
2022/10/31 02:28:05;;;;;;;0.6;0.6;;;;;;;14.0;100.0;101790;;;;
2022/10/31 02:29:01;;;;;;;0.6;0.6;;;;;;;14.0;100.0;101790;;;;
2022/10/31 02:30:04;;;;;;;0.6;0.6;;;;;;;14.1;100.0;101790;;;;
2022/10/31 02:31:10;;;;;;;0.6;0.6;;;;;;;14.1;100.0;101790;;;;
2022/10/31 02:32:00;;;;;;;0.6;0.6;;;;;;;14.0;100.0;101790;;;;
2022/10/31 02:33:05;;;;;;;0.6;0.6;;;;;;;14.0;100.0;101790;;;;
2022/10/31 02:34:04;;;;;;;0.6;0.6;;;;;;;14.0;100.0;101790;;;;
2022/10/31 02:35:00;;;;;;;1.2;1.2;;;;;;;14.0;100.0;101790;;;;
2022/10/31 02:36:10;;;;;;;1.2;1.2;;;;;;;14.0;100.0;101790;;;;
2022/10/31 02:37:10;;;;;;;1.2;1.2;;;;;;;14.0;100.0;101790;;;;
2022/10/31 02:38:04;;;;;;;1.2;1.2;;;;;;;14.0;100.0;101790;;;;
2022/10/31 02:39:10;;;;;;;1.2;1.2;;;;;;;14.0;100.0;101790;;;;
2022/10/31 02:40:10;;;;;;;1.2;1.2;;;;;;;13.9;100.0;101790;;;;
2022/10/31 02:41:04;;;;;;;1.2;1.2;;;;;;;13.9;100.0;101790;;;;
2022/10/31 02:42:10;;;;;;;1.2;1.2;;;;;;;13.9;100.0;101790;;;;
2022/10/31 02:43:10;;;;;;;1.2;1.2;;;;;;;13.9;100.0;101790;;;;
2022/10/31 02:44:03;;;;;;;1.2;1.2;;;;;;;13.8;100.0;101780;;;;
2022/10/31 02:45:00;;;;;;;1.2;1.2;;;;;;;13.8;100.0;101780;;;;
2022/10/31 02:46:10;;;;;;;1.2;1.2;;;;;;;13.8;100.0;101780;;;;
2022/10/31 02:47:10;;;;;;;1.2;1.2;;;;;;;13.8;100.0;101780;;;;
2022/10/31 02:48:03;;;;;;;1.2;1.2;;;;;;;13.8;100.0;101780;;;;
2022/10/31 02:49:03;;;;;;;1.2;1.2;;;;;;;13.8;100.0;101780;;;;
2022/10/31 02:50:04;;;;;;;1.2;1.2;;;;;;;13.7;100.0;101780;;;;
2022/10/31 02:51:00;;;;;;;1.2;1.2;;;;;;;13.7;100.0;101780;;;;
2022/10/31 02:52:00;;;;;;;1.2;1.2;;;;;;;13.7;100.0;101790;;;;
2022/10/31 02:53:01;;;;;;;1.2;1.2;;;;;;;13.7;100.0;101790;;;;
2022/10/31 02:54:00;;;;;;;1.2;1.2;;;;;;;13.6;100.0;101790;;;;
2022/10/31 02:55:10;;;;;;;0.7;0.7;;;;;;;13.6;100.0;101790;;;;
2022/10/31 02:56:04;;;;;;;0.7;0.7;;;;;;;13.7;100.0;101790;;;;
2022/10/31 02:57:02;;;;;;;0.7;0.7;;;;;;;13.7;100.0;101790;;;;
2022/10/31 02:58:04;;;;;;;0.7;0.7;;;;;;;13.6;100.0;101790;;;;
2022/10/31 02:59:02;;;;;;;0.7;0.7;;;;;;;13.6;100.0;101790;;;;
2022/10/31 03:00:02;;;;;;;0.7;0.7;;;;;;;13.5;100.0;101790;;;;
2022/10/31 03:01:10;;;;;;;0.7;0.7;;;;;;;13.5;100.0;101790;;;;
2022/10/31 03:02:03;;;;;;;0.7;0.7;;;;;;;13.5;100.0;101790;;;;
2022/10/31 03:03:10;;;;;;;0.7;0.7;;;;;;;13.5;100.0;101790;;;;
2022/10/31 03:04:10;;;;;;;0.7;0.7;;;;;;;13.6;100.0;101790;;;;
2022/10/31 03:05:09;;;;;;;0.7;0.7;;;;;;;13.6;100.0;101790;;;;
2022/10/31 03:06:07;;;;;;;0.7;0.7;;;;;;;13.5;100.0;101790;;;;
2022/10/31 03:07:05;;;;;;;0.7;0.7;;;;;;;13.5;100.0;101790;;;;
2022/10/31 03:08:01;;;;;;;0.7;0.7;;;;;;;13.5;100.0;101790;;;;
2022/10/31 03:09:07;;;;;;;0.7;0.7;;;;;;;13.5;100.0;101790;;;;
2022/10/31 03:10:00;;;;;;;0.7;0.7;;;;;;;13.5;100.0;101790;;;;
2022/10/31 03:11:01;;;;;;;0.7;0.7;;;;;;;13.5;100.0;101790;;;;
2022/10/31 03:12:03;;;;;;;0.7;0.7;;;;;;;13.5;100.0;101790;;;;
2022/10/31 03:13:06;;;;;;;0.7;0.7;;;;;;;13.5;100.0;101790;;;;
2022/10/31 03:14:09;;;;;;;0.7;0.7;;;;;;;13.4;100.0;101790;;;;
2022/10/31 03:15:10;;;;;;;10.7;2.0;;;;;;;13.4;100.0;101790;;;;
2022/10/31 03:16:07;;;;;;;10.7;2.0;;;;;;;13.5;100.0;101790;;;;
2022/10/31 03:17:02;;;;;;;10.7;2.0;;;;;;;13.5;100.0;101790;;;;
2022/10/31 03:18:04;;;;;;;10.7;2.0;;;;;;;13.5;100.0;101790;;;;
2022/10/31 03:19:03;;;;;;;10.7;2.0;;;;;;;13.5;100.0;101790;;;;
2022/10/31 03:20:00;;;;;;;10.7;2.0;;;;;;;13.4;100.0;101790;;;;
2022/10/31 03:21:10;;;;;;;10.7;2.0;;;;;;;13.4;100.0;101790;;;;
2022/10/31 03:22:01;;;;;;;10.7;2.0;;;;;;;13.4;100.0;101800;;;;
2022/10/31 03:23:01;;;;;;;10.7;2.0;;;;;;;13.4;100.0;101800;;;;
2022/10/31 03:24:01;;;;;;;10.7;2.0;;;;;;;13.4;100.0;101800;;;;
2022/10/31 03:25:01;;;;;;;10.7;2.0;;;;;;;13.4;100.0;101800;;;;
2022/10/31 03:26:02;;;;;;;10.7;2.0;;;;;;;13.4;100.0;101800;;;;
2022/10/31 03:27:01;;;;;;;10.7;2.0;;;;;;;13.4;100.0;101800;;;;
2022/10/31 03:28:01;;;;;;;10.7;2.0;;;;;;;13.3;100.0;101800;;;;
2022/10/31 03:29:02;;;;;;;10.7;2.0;;;;;;;13.3;100.0;101800;;;;
2022/10/31 03:30:02;;;;;;;10.7;2.0;;;;;;;13.3;100.0;101790;;;;
2022/10/31 03:31:06;;;;;;;10.7;2.0;;;;;;;13.3;100.0;101790;;;;
2022/10/31 03:32:02;;;;;;;10.7;2.0;;;;;;;13.4;100.0;101800;;;;
2022/10/31 03:33:03;;;;;;;10.7;2.0;;;;;;;13.4;100.0;101800;;;;
2022/10/31 03:34:01;;;;;;;10.7;2.0;;;;;;;13.4;100.0;101800;;;;
2022/10/31 03:35:03;;;;;;;2.0;1.9;;;;;;;13.4;100.0;101800;;;;
2022/10/31 03:36:02;;;;;;;2.0;1.9;;;;;;;13.4;100.0;101790;;;;
2022/10/31 03:37:01;;;;;;;2.0;1.9;;;;;;;13.4;100.0;101790;;;;
2022/10/31 03:38:06;;;;;;;2.0;1.9;;;;;;;13.4;100.0;101790;;;;
2022/10/31 03:39:02;;;;;;;2.0;1.9;;;;;;;13.4;100.0;101790;;;;
2022/10/31 03:40:01;;;;;;;2.0;1.9;;;;;;;13.3;100.0;101790;;;;
2022/10/31 03:41:01;;;;;;;2.0;1.9;;;;;;;13.3;100.0;101790;;;;
2022/10/31 03:42:04;;;;;;;2.0;1.9;;;;;;;13.2;100.0;101790;;;;
2022/10/31 03:43:03;;;;;;;2.0;1.9;;;;;;;13.2;100.0;101790;;;;
2022/10/31 03:44:04;;;;;;;2.0;1.9;;;;;;;13.3;100.0;101790;;;;
2022/10/31 03:45:04;;;;;;;2.0;1.9;;;;;;;13.3;100.0;101790;;;;
2022/10/31 03:46:00;;;;;;;2.0;1.9;;;;;;;13.3;100.0;101790;;;;
2022/10/31 03:47:01;;;;;;;2.0;1.9;;;;;;;13.3;100.0;101790;;;;
2022/10/31 03:48:00;;;;;;;2.0;1.9;;;;;;;13.4;100.0;101790;;;;
2022/10/31 03:49:01;;;;;;;2.0;1.9;;;;;;;13.4;100.0;101790;;;;
2022/10/31 03:50:00;;;;;;;2.0;1.9;;;;;;;13.3;100.0;101790;;;;
2022/10/31 03:51:10;;;;;;;2.0;1.9;;;;;;;13.3;100.0;101790;;;;
2022/10/31 03:52:10;;;;;;;2.0;1.9;;;;;;;13.2;100.0;101790;;;;
2022/10/31 03:53:05;;;;;;;2.0;1.9;;;;;;;13.2;100.0;101790;;;;
2022/10/31 03:54:00;;;;;;;2.0;1.9;;;;;;;13.3;100.0;101790;;;;
2022/10/31 03:55:06;;;;;;;0.7;0.7;;;;;;;13.3;100.0;101790;;;;
2022/10/31 03:56:04;;;;;;;0.7;0.7;;;;;;;13.2;100.0;101790;;;;
2022/10/31 03:57:03;;;;;;;0.7;0.7;;;;;;;13.2;100.0;101790;;;;
2022/10/31 03:58:04;;;;;;;0.7;0.7;;;;;;;13.1;100.0;101790;;;;
2022/10/31 03:59:04;;;;;;;0.7;0.7;;;;;;;13.1;100.0;101790;;;;
2022/10/31 04:00:03;;;;;;;0.7;0.7;;;;;;;13.1;100.0;101790;;;;
2022/10/31 04:01:02;;;;;;;0.7;0.7;;;;;;;13.1;100.0;101790;;;;
2022/10/31 04:02:03;;;;;;;0.7;0.7;;;;;;;13.1;100.0;101790;;;;
2022/10/31 04:03:04;;;;;;;0.7;0.7;;;;;;;13.1;100.0;101790;;;;
2022/10/31 04:04:01;;;;;;;0.7;0.7;;;;;;;13.1;100.0;101790;;;;
2022/10/31 04:05:00;;;;;;;0.7;0.7;;;;;;;13.1;100.0;101790;;;;
2022/10/31 04:06:03;;;;;;;0.7;0.7;;;;;;;12.7;100.0;101790;;;;
2022/10/31 04:07:01;;;;;;;0.7;0.7;;;;;;;12.7;100.0;101790;;;;
2022/10/31 04:08:02;;;;;;;0.7;0.7;;;;;;;12.8;100.0;101790;;;;
2022/10/31 04:09:02;;;;;;;0.7;0.7;;;;;;;12.8;100.0;101790;;;;
2022/10/31 04:10:01;;;;;;;0.7;0.7;;;;;;;12.9;100.0;101790;;;;
2022/10/31 04:11:02;;;;;;;0.7;0.7;;;;;;;12.9;100.0;101790;;;;
2022/10/31 04:12:00;;;;;;;0.7;0.7;;;;;;;12.8;100.0;101790;;;;
2022/10/31 04:13:03;;;;;;;0.7;0.7;;;;;;;12.8;100.0;101790;;;;
2022/10/31 04:14:01;;;;;;;0.7;0.7;;;;;;;12.9;100.0;101790;;;;
2022/10/31 04:15:01;;;;;;;0.5;0.5;;;;;;;12.9;100.0;101790;;;;
2022/10/31 04:16:00;;;;;;;0.5;0.5;;;;;;;12.9;100.0;101790;;;;
2022/10/31 04:17:01;;;;;;;0.5;0.5;;;;;;;12.9;100.0;101790;;;;
2022/10/31 04:18:01;;;;;;;0.5;0.5;;;;;;;12.8;100.0;101790;;;;
2022/10/31 04:19:00;;;;;;;0.5;0.5;;;;;;;12.8;100.0;101790;;;;
2022/10/31 04:20:00;;;;;;;0.5;0.5;;;;;;;12.8;100.0;101800;;;;
2022/10/31 04:21:01;;;;;;;0.5;0.5;;;;;;;12.8;100.0;101800;;;;
2022/10/31 04:22:00;;;;;;;0.5;0.5;;;;;;;12.8;100.0;101800;;;;
2022/10/31 04:23:01;;;;;;;0.5;0.5;;;;;;;12.8;100.0;101800;;;;
2022/10/31 04:24:00;;;;;;;0.5;0.5;;;;;;;12.8;100.0;101800;;;;
2022/10/31 04:25:00;;;;;;;0.5;0.5;;;;;;;12.8;100.0;101800;;;;
2022/10/31 04:26:00;;;;;;;0.5;0.5;;;;;;;12.7;100.0;101800;;;;
2022/10/31 04:27:00;;;;;;;0.5;0.5;;;;;;;12.7;100.0;101800;;;;
2022/10/31 04:28:00;;;;;;;0.5;0.5;;;;;;;12.7;100.0;101800;;;;
2022/10/31 04:29:00;;;;;;;0.5;0.5;;;;;;;12.7;100.0;101800;;;;
2022/10/31 04:30:00;;;;;;;0.5;0.5;;;;;;;12.6;100.0;101800;;;;
2022/10/31 04:31:00;;;;;;;0.5;0.5;;;;;;;12.6;100.0;101800;;;;
2022/10/31 04:32:00;;;;;;;0.5;0.5;;;;;;;12.7;100.0;101800;;;;
2022/10/31 04:33:00;;;;;;;0.5;0.5;;;;;;;12.7;100.0;101800;;;;
2022/10/31 04:34:00;;;;;;;0.5;0.5;;;;;;;12.6;100.0;101790;;;;
2022/10/31 04:35:00;;;;;;;0.7;0.7;;;;;;;12.6;100.0;101790;;;;
2022/10/31 04:36:00;;;;;;;0.7;0.7;;;;;;;12.7;100.0;101790;;;;
2022/10/31 04:37:00;;;;;;;0.7;0.7;;;;;;;12.7;100.0;101790;;;;
2022/10/31 04:38:00;;;;;;;0.7;0.7;;;;;;;12.6;100.0;101790;;;;
2022/10/31 04:39:00;;;;;;;0.7;0.7;;;;;;;12.6;100.0;101790;;;;
2022/10/31 04:40:00;;;;;;;0.7;0.7;;;;;;;12.6;100.0;101790;;;;
2022/10/31 04:41:00;;;;;;;0.7;0.7;;;;;;;12.6;100.0;101790;;;;
2022/10/31 04:42:00;;;;;;;0.7;0.7;;;;;;;12.5;100.0;101790;;;;
2022/10/31 04:43:00;;;;;;;0.7;0.7;;;;;;;12.5;100.0;101790;;;;
2022/10/31 04:44:00;;;;;;;0.7;0.7;;;;;;;12.5;100.0;101780;;;;
2022/10/31 04:45:00;;;;;;;0.7;0.7;;;;;;;12.5;100.0;101780;;;;
2022/10/31 04:46:00;;;;;;;0.7;0.7;;;;;;;12.6;100.0;101790;;;;
2022/10/31 04:47:00;;;;;;;0.7;0.7;;;;;;;12.6;100.0;101790;;;;
2022/10/31 04:48:00;;;;;;;0.7;0.7;;;;;;;12.6;100.0;101790;;;;
2022/10/31 04:49:00;;;;;;;0.7;0.7;;;;;;;12.6;100.0;101790;;;;
2022/10/31 04:50:00;;;;;;;0.7;0.7;;;;;;;12.6;100.0;101790;;;;
2022/10/31 04:51:01;;;;;;;0.7;0.7;;;;;;;12.6;100.0;101790;;;;
2022/10/31 04:52:00;;;;;;;0.7;0.7;;;;;;;12.5;100.0;101790;;;;
2022/10/31 04:53:00;;;;;;;0.7;0.7;;;;;;;12.5;100.0;101790;;;;
2022/10/31 04:54:00;;;;;;;0.9;0.9;;;;;;;12.5;100.0;101790;;;;
2022/10/31 04:55:00;;;;;;;0.9;0.9;;;;;;;12.5;100.0;101790;;;;
2022/10/31 04:56:00;;;;;;;0.9;0.9;;;;;;;12.6;100.0;101790;;;;
2022/10/31 04:57:00;;;;;;;0.9;0.9;;;;;;;12.6;100.0;101790;;;;
2022/10/31 04:58:01;;;;;;;0.9;0.9;;;;;;;12.5;100.0;101790;;;;
2022/10/31 04:59:00;;;;;;;0.9;0.9;;;;;;;12.5;100.0;101790;;;;
2022/10/31 05:00:00;;;;;;;0.9;0.9;;;;;;;12.4;100.0;101790;;;;
2022/10/31 05:01:00;;;;;;;0.9;0.9;;;;;;;12.4;100.0;101790;;;;
2022/10/31 05:02:00;;;;;;;0.9;0.9;;;;;;;12.4;100.0;101790;;;;
2022/10/31 05:03:00;;;;;;;0.9;0.9;;;;;;;12.4;100.0;101790;;;;
2022/10/31 05:04:00;;;;;;;0.9;0.9;;;;;;;12.4;100.0;101790;;;;
2022/10/31 05:05:00;;;;;;;0.9;0.9;;;;;;;12.4;100.0;101790;;;;
2022/10/31 05:06:00;;;;;;;0.9;0.9;;;;;;;12.4;100.0;101790;;;;
2022/10/31 05:07:00;;;;;;;0.9;0.9;;;;;;;12.4;100.0;101790;;;;
2022/10/31 05:08:00;;;;;;;0.9;0.9;;;;;;;12.4;100.0;101780;;;;
2022/10/31 05:09:00;;;;;;;0.9;0.9;;;;;;;12.4;100.0;101780;;;;
2022/10/31 05:10:00;;;;;;;0.9;0.9;;;;;;;12.4;100.0;101780;;;;
2022/10/31 05:11:04;;;;;;;0.9;0.9;;;;;;;12.4;100.0;101780;;;;
2022/10/31 05:12:00;;;;;;;0.9;0.9;;;;;;;12.4;100.0;101780;;;;
2022/10/31 05:13:02;;;;;;;0.9;0.9;;;;;;;12.4;100.0;101780;;;;
2022/10/31 05:14:00;;;;;;;2.4;1.5;;;;;;;12.3;100.0;101780;;;;
2022/10/31 05:15:00;;;;;;;2.4;1.5;;;;;;;12.3;100.0;101780;;;;
2022/10/31 05:16:00;;;;;;;2.4;1.5;;;;;;;12.4;100.0;101780;;;;
2022/10/31 05:17:00;;;;;;;2.4;1.5;;;;;;;12.4;100.0;101780;;;;
2022/10/31 05:18:01;;;;;;;2.4;1.5;;;;;;;12.4;100.0;101770;;;;
2022/10/31 05:19:00;;;;;;;2.4;1.5;;;;;;;12.4;100.0;101770;;;;
2022/10/31 05:20:00;;;;;;;2.4;1.5;;;;;;;12.3;100.0;101770;;;;
2022/10/31 05:21:00;;;;;;;2.4;1.5;;;;;;;12.3;100.0;101770;;;;
2022/10/31 05:22:00;;;;;;;2.4;1.5;;;;;;;12.2;100.0;101770;;;;
2022/10/31 05:23:00;;;;;;;2.4;1.5;;;;;;;12.2;100.0;101770;;;;
2022/10/31 05:24:00;;;;;;;2.4;1.5;;;;;;;12.3;100.0;101770;;;;
2022/10/31 05:25:00;;;;;;;2.4;1.5;;;;;;;12.3;100.0;101770;;;;
2022/10/31 05:26:00;;;;;;;2.4;1.5;;;;;;;12.3;100.0;101770;;;;
2022/10/31 05:27:00;;;;;;;2.4;1.5;;;;;;;12.3;100.0;101770;;;;
2022/10/31 05:28:00;;;;;;;2.4;1.5;;;;;;;12.3;100.0;101770;;;;
2022/10/31 05:29:00;;;;;;;2.4;1.5;;;;;;;12.3;100.0;101770;;;;
2022/10/31 05:30:00;;;;;;;2.4;1.5;;;;;;;12.3;100.0;101770;;;;
2022/10/31 05:31:00;;;;;;;2.4;1.5;;;;;;;12.3;100.0;101770;;;;
2022/10/31 05:32:00;;;;;;;2.4;1.5;;;;;;;12.2;100.0;101770;;;;
2022/10/31 05:33:00;;;;;;;2.4;1.5;;;;;;;12.2;100.0;101770;;;;
2022/10/31 05:34:00;;;;;;;0.6;0.6;;;;;;;12.2;100.0;101770;;;;
2022/10/31 05:35:00;;;;;;;0.6;0.6;;;;;;;12.2;100.0;101770;;;;
2022/10/31 05:36:00;;;;;;;0.6;0.6;;;;;;;12.2;100.0;101770;;;;
2022/10/31 05:37:00;;;;;;;0.6;0.6;;;;;;;12.2;100.0;101770;;;;
2022/10/31 05:38:00;;;;;;;0.6;0.6;;;;;;;12.0;100.0;101780;;;;
2022/10/31 05:39:00;;;;;;;0.6;0.6;;;;;;;12.0;100.0;101780;;;;
2022/10/31 05:40:08;;;;;;;0.6;0.6;;;;;;;12.1;100.0;101770;;;;
2022/10/31 05:41:00;;;;;;;0.6;0.6;;;;;;;12.1;100.0;101770;;;;
2022/10/31 05:42:00;;;;;;;0.6;0.6;;;;;;;12.1;100.0;101770;;;;
2022/10/31 05:43:00;;;;;;;0.6;0.6;;;;;;;12.1;100.0;101770;;;;
2022/10/31 05:44:00;;;;;;;0.6;0.6;;;;;;;11.9;100.0;101770;;;;
2022/10/31 05:45:00;;;;;;;0.6;0.6;;;;;;;11.9;100.0;101770;;;;
2022/10/31 05:46:00;;;;;;;0.6;0.6;;;;;;;12.0;100.0;101770;;;;
2022/10/31 05:47:00;;;;;;;0.6;0.6;;;;;;;12.0;100.0;101770;;;;
2022/10/31 05:48:01;;;;;;;0.6;0.6;;;;;;;11.9;100.0;101760;;;;
2022/10/31 05:49:02;;;;;;;0.6;0.6;;;;;;;11.9;100.0;101760;;;;
2022/10/31 05:50:00;;;;;;;0.6;0.6;;;;;;;12.0;100.0;101770;;;;
2022/10/31 05:51:00;;;;;;;0.6;0.6;;;;;;;12.0;100.0;101770;;;;
2022/10/31 05:52:00;;;;;;;0.6;0.6;;;;;;;12.0;100.0;101760;;;;
2022/10/31 05:53:01;;;;;;;0.6;0.6;;;;;;;12.0;100.0;101760;;;;
2022/10/31 05:54:00;;;;;;;0.8;0.8;;;;;;;12.0;100.0;101760;;;;
2022/10/31 05:55:00;;;;;;;0.8;0.8;;;;;;;12.0;100.0;101760;;;;
2022/10/31 05:56:00;;;;;;;0.8;0.8;;;;;;;12.0;100.0;101760;;;;
2022/10/31 05:57:00;;;;;;;0.8;0.8;;;;;;;12.0;100.0;101760;;;;
2022/10/31 05:58:00;;;;;;;0.8;0.8;;;;;;;12.0;100.0;101760;;;;
2022/10/31 05:59:00;;;;;;;0.8;0.8;;;;;;;12.0;100.0;101760;;;;
2022/10/31 06:00:00;;;;;;;0.8;0.8;;;;;;;12.0;100.0;101760;;;;
2022/10/31 06:01:00;;;;;;;0.8;0.8;;;;;;;12.0;100.0;101760;;;;
2022/10/31 06:02:00;;;;;;;0.8;0.8;;;;;;;12.0;100.0;101760;;;;
2022/10/31 06:03:02;;;;;;;0.8;0.8;;;;;;;12.0;100.0;101760;;;;
2022/10/31 06:04:00;;;;;;;0.8;0.8;;;;;;;11.9;100.0;101760;;;;
2022/10/31 06:05:01;;;;;;;0.8;0.8;;;;;;;11.9;100.0;101760;;;;
2022/10/31 06:06:00;;;;;;;0.8;0.8;;;;;;;12.0;100.0;101760;;;;
2022/10/31 06:07:00;;;;;;;0.8;0.8;;;;;;;12.0;100.0;101760;;;;
2022/10/31 06:08:00;;;;;;;0.8;0.8;;;;;;;12.0;100.0;101760;;;;
2022/10/31 06:09:00;;;;;;;0.8;0.8;;;;;;;12.0;100.0;101760;;;;
2022/10/31 06:10:00;;;;;;;0.8;0.8;;;;;;;12.0;100.0;101760;;;;
2022/10/31 06:11:00;;;;;;;0.8;0.8;;;;;;;12.0;100.0;101760;;;;
2022/10/31 06:12:00;;;;;;;0.8;0.8;;;;;;;12.0;100.0;101760;;;;
2022/10/31 06:13:00;;;;;;;0.8;0.8;;;;;;;12.0;100.0;101760;;;;
2022/10/31 06:14:00;;;;;;;0.8;0.8;;;;;;;12.0;100.0;101750;;;;
2022/10/31 06:15:00;;;;;;;0.8;0.8;;;;;;;12.0;100.0;101750;;;;
2022/10/31 06:16:00;;;;;;;0.8;0.8;;;;;;;11.9;100.0;101750;;;;
2022/10/31 06:17:00;;;;;;;0.8;0.8;;;;;;;11.9;100.0;101750;;;;
2022/10/31 06:18:01;;;;;;;0.8;0.8;;;;;;;12.1;100.0;101750;;;;
2022/10/31 06:19:00;;;;;;;0.8;0.8;;;;;;;12.1;100.0;101750;;;;
2022/10/31 06:20:00;;;;;;;0.8;0.8;;;;;;;12.0;100.0;101750;;;;
2022/10/31 06:21:00;;;;;;;0.8;0.8;;;;;;;12.0;100.0;101750;;;;
2022/10/31 06:22:00;;;;;;;0.8;0.8;;;;;;;11.9;100.0;101760;;;;